createdAt,value
2018-12-12T00:02:34.869Z,95.49
2018-12-12T00:05:38.711Z,94.59
2018-12-12T00:08:42.318Z,93.10
2018-12-12T00:11:46.976Z,94.31
2018-12-12T00:14:50.503Z,95.49
2018-12-12T00:17:54.129Z,94.99
2018-12-12T00:20:57.756Z,94.91
2018-12-12T00:24:01.554Z,94.36
2018-12-12T00:27:05.340Z,94.77
2018-12-12T00:30:08.912Z,94.22
2018-12-12T00:33:12.469Z,95.52
2018-12-12T00:36:16.175Z,96.58
2018-12-12T00:39:19.798Z,94.92
2018-12-12T00:42:23.429Z,95.01
2018-12-12T00:45:26.997Z,94.75
2018-12-12T00:48:30.788Z,94.43
2018-12-12T00:51:34.383Z,94.70
2018-12-12T00:54:39.118Z,95.21
2018-12-12T00:57:43.768Z,95.40
2018-12-12T01:00:47.328Z,95.55
2018-12-12T01:03:51.007Z,94.77
2018-12-12T01:06:54.631Z,95.06
2018-12-12T01:09:59.299Z,95.58
2018-12-12T01:13:03.084Z,95.87
2018-12-12T01:16:06.677Z,95.80
2018-12-12T01:19:10.334Z,95.68
2018-12-12T01:22:13.938Z,94.92
2018-12-12T01:25:17.485Z,95.54
2018-12-12T01:28:20.967Z,96.09
2018-12-12T01:31:24.597Z,96.94
2018-12-12T01:34:28.470Z,96.61
2018-12-12T01:37:32.029Z,96.10
2018-12-12T01:40:35.661Z,95.91
2018-12-12T01:43:39.218Z,95.61
2018-12-12T01:46:43.857Z,95.89
2018-12-12T01:49:47.445Z,95.66
2018-12-12T01:52:51.027Z,96.31
2018-12-12T01:55:55.860Z,95.49
2018-12-12T01:58:59.462Z,95.42
2018-12-12T02:02:03.087Z,95.94
2018-12-12T02:05:06.702Z,96.18
2018-12-12T02:08:10.272Z,96.04
2018-12-12T02:11:13.986Z,96.48
2018-12-12T02:14:17.717Z,96.78
2018-12-12T02:17:21.404Z,96.13
2018-12-12T02:20:25.062Z,96.69
2018-12-12T02:23:28.729Z,96.09
2018-12-12T02:26:32.575Z,95.69
2018-12-12T02:29:36.227Z,95.25
2018-12-12T02:32:39.821Z,95.18
2018-12-12T02:35:43.519Z,95.08
2018-12-12T02:38:47.137Z,94.83
2018-12-12T02:41:50.699Z,94.38
2018-12-12T02:44:54.306Z,95.38
2018-12-12T02:47:57.939Z,95.29
2018-12-12T02:51:02.650Z,95.61
2018-12-12T02:54:06.331Z,96.05
2018-12-12T02:57:11.042Z,96.99
2018-12-12T03:00:14.674Z,96.68
2018-12-12T03:03:18.242Z,95.86
2018-12-12T03:06:21.788Z,95.58
2018-12-12T03:09:25.375Z,96.18
2018-12-12T03:12:29.192Z,96.24
2018-12-12T03:15:32.810Z,95.92
2018-12-12T03:18:36.397Z,94.48
2018-12-12T03:21:40.049Z,94.47
2018-12-12T03:24:43.554Z,94.45
2018-12-12T03:27:47.163Z,95.05
2018-12-12T03:30:50.788Z,95.90
2018-12-12T03:33:54.324Z,96.22
2018-12-12T03:36:57.895Z,95.74
2018-12-12T03:40:02.614Z,95.86
2018-12-12T03:43:06.265Z,96.43
2018-12-12T03:46:09.860Z,96.44
2018-12-12T03:49:13.831Z,96.06
2018-12-12T03:52:17.383Z,95.42
2018-12-12T03:55:21.050Z,96.02
2018-12-12T03:58:24.655Z,95.86
2018-12-12T04:01:28.602Z,95.24
2018-12-12T04:04:32.286Z,95.68
2018-12-12T04:07:36.207Z,95.17
2018-12-12T04:10:39.814Z,95.23
2018-12-12T04:13:43.317Z,95.26
2018-12-12T04:16:47.007Z,96.12
2018-12-12T04:19:50.518Z,95.60
2018-12-12T04:22:54.103Z,95.25
2018-12-12T04:25:57.794Z,94.53
2018-12-12T04:29:01.279Z,96.04
2018-12-12T04:32:05.133Z,95.19
2018-12-12T04:35:08.872Z,95.46
2018-12-12T04:38:12.685Z,95.87
2018-12-12T04:41:16.392Z,95.93
2018-12-12T04:44:19.897Z,95.66
2018-12-12T04:47:23.424Z,94.89
2018-12-12T04:50:27.003Z,95.00
2018-12-12T04:53:30.560Z,95.78
2018-12-12T04:56:34.670Z,95.10
2018-12-12T04:59:38.705Z,94.57
2018-12-12T05:02:42.252Z,94.96
2018-12-12T05:05:46.270Z,95.14
2018-12-12T05:08:49.780Z,95.59
2018-12-12T05:11:53.382Z,95.94
2018-12-12T05:14:57.275Z,96.21
2018-12-12T05:18:00.927Z,95.18
2018-12-12T05:21:04.536Z,95.48
2018-12-12T05:24:08.199Z,95.61
2018-12-12T05:27:11.705Z,95.92
2018-12-12T05:30:15.262Z,96.07
2018-12-12T05:33:18.698Z,96.63
2018-12-12T05:36:22.213Z,96.01
2018-12-12T05:39:26.276Z,95.94
2018-12-12T05:42:30.236Z,95.50
2018-12-12T05:45:33.834Z,95.88
2018-12-12T05:48:37.231Z,95.92
2018-12-12T05:51:41.133Z,95.84
2018-12-12T05:54:44.645Z,95.30
2018-12-12T05:57:48.109Z,95.83
2018-12-12T06:00:51.648Z,96.16
2018-12-12T06:03:55.034Z,95.61
2018-12-12T06:06:58.445Z,95.75
2018-12-12T06:10:01.850Z,96.74
2018-12-12T06:13:05.563Z,96.37
2018-12-12T06:16:08.956Z,95.42
2018-12-12T06:19:12.357Z,95.17
2018-12-12T06:22:23.518Z,94.30
2018-12-12T06:25:26.943Z,94.15
2018-12-12T06:28:30.307Z,93.86
2018-12-12T06:31:34.133Z,93.18
2018-12-12T06:34:37.657Z,93.46
2018-12-12T06:37:41.172Z,93.68
2018-12-12T06:40:44.604Z,93.52
2018-12-12T06:43:48.450Z,92.90
2018-12-12T06:46:51.987Z,92.81
2018-12-12T06:49:55.487Z,92.94
2018-12-12T06:52:58.944Z,91.77
2018-12-12T06:56:02.641Z,92.48
2018-12-12T06:59:06.170Z,92.80
2018-12-12T07:02:09.733Z,93.65
2018-12-12T07:05:13.298Z,93.76
2018-12-12T07:08:16.671Z,93.19
2018-12-12T07:11:20.161Z,92.84
2018-12-12T07:14:23.623Z,92.86
2018-12-12T07:17:27.237Z,92.93
2018-12-12T07:20:30.613Z,93.31
2018-12-12T07:23:34.207Z,92.91
2018-12-12T07:26:37.683Z,92.85
2018-12-12T07:29:41.220Z,92.89
2018-12-12T07:32:44.723Z,92.89
2018-12-12T07:35:48.457Z,93.22
2018-12-12T07:38:51.914Z,94.01
2018-12-12T07:41:55.419Z,94.79
2018-12-12T07:44:59.019Z,94.89
2018-12-12T07:48:02.508Z,95.88
2018-12-12T07:51:06.108Z,96.67
2018-12-12T07:54:09.868Z,96.79
2018-12-12T07:57:13.388Z,97.77
2018-12-12T08:00:16.899Z,98.11
2018-12-12T08:03:20.601Z,98.10
2018-12-12T08:06:24.070Z,98.42
2018-12-12T08:09:27.617Z,98.08
2018-12-12T08:12:31.327Z,97.21
2018-12-12T08:15:34.883Z,98.14
2018-12-12T08:18:38.690Z,98.32
2018-12-12T08:21:42.120Z,97.67
2018-12-12T08:24:45.615Z,97.53
2018-12-12T08:27:49.443Z,96.84
2018-12-12T08:30:53.061Z,96.01
2018-12-12T08:33:56.613Z,95.25
2018-12-12T08:37:00.108Z,95.04
2018-12-12T08:40:05.314Z,94.66
2018-12-12T08:43:09.296Z,93.76
2018-12-12T08:46:12.734Z,94.86
2018-12-12T08:49:16.446Z,94.79
2018-12-12T08:52:20.145Z,94.91
2018-12-12T08:55:24.073Z,94.96
2018-12-12T08:58:28.843Z,94.02
2018-12-12T09:01:32.405Z,94.32
2018-12-12T09:04:35.999Z,94.47
2018-12-12T09:07:39.414Z,93.89
2018-12-12T09:10:46.418Z,94.55
2018-12-12T09:13:50.088Z,94.79
2018-12-12T09:16:53.915Z,95.28
2018-12-12T09:19:57.572Z,94.75
2018-12-12T09:23:01.098Z,94.19
2018-12-12T09:26:04.812Z,93.47
2018-12-12T09:29:08.416Z,93.17
2018-12-12T09:32:11.900Z,92.98
2018-12-12T09:35:16.495Z,93.11
2018-12-12T09:38:20.055Z,94.21
2018-12-12T09:41:23.650Z,93.38
2018-12-12T09:44:27.192Z,92.84
2018-12-12T09:47:31.019Z,93.07
2018-12-12T09:50:34.534Z,93.61
2018-12-12T09:53:38.100Z,93.73
2018-12-12T09:56:41.558Z,93.58
2018-12-12T09:59:45.048Z,91.88
2018-12-12T10:02:48.606Z,91.33
2018-12-12T10:05:52.395Z,90.94
2018-12-12T10:08:55.942Z,91.00
2018-12-12T10:11:59.836Z,89.99
2018-12-12T10:15:03.424Z,91.07
2018-12-12T10:18:07.042Z,91.72
2018-12-12T10:21:10.716Z,92.04
2018-12-12T10:24:14.434Z,92.91
2018-12-12T10:27:17.909Z,92.69
2018-12-12T10:30:21.386Z,93.25
2018-12-12T10:33:24.966Z,92.42
2018-12-12T10:36:29.529Z,93.08
2018-12-12T10:39:33.681Z,92.89
2018-12-12T10:42:37.150Z,92.41
2018-12-12T10:45:40.987Z,92.56
2018-12-12T10:48:44.578Z,91.19
2018-12-12T10:51:48.108Z,90.96
2018-12-12T10:54:51.614Z,91.01
2018-12-12T10:57:55.036Z,91.08
2018-12-12T11:01:03.946Z,90.84
2018-12-12T11:04:07.596Z,90.68
2018-12-12T11:07:11.216Z,90.09
2018-12-12T11:10:14.769Z,91.00
2018-12-12T11:13:18.465Z,90.17
2018-12-12T11:16:21.903Z,90.02
2018-12-12T11:19:25.501Z,90.04
2018-12-12T11:22:31.348Z,89.54
2018-12-12T11:25:34.747Z,89.65
2018-12-12T11:28:38.187Z,88.89
2018-12-12T11:31:41.583Z,89.28
2018-12-12T11:34:45.069Z,88.09
2018-12-12T11:37:48.793Z,87.28
2018-12-12T11:40:52.331Z,84.51
2018-12-12T11:43:55.950Z,85.38
2018-12-12T11:46:59.455Z,84.58
2018-12-12T11:50:03.263Z,84.38
2018-12-12T11:53:06.760Z,83.62
2018-12-12T11:56:11.351Z,85.19
2018-12-12T11:59:18.674Z,84.84
2018-12-12T12:02:22.298Z,87.06
2018-12-12T12:05:25.920Z,86.73
2018-12-12T12:08:29.589Z,86.30
2018-12-12T12:11:33.202Z,86.03
2018-12-12T12:14:36.771Z,84.75
2018-12-12T12:17:40.371Z,86.53
2018-12-12T12:20:44.014Z,85.79
2018-12-12T12:23:47.471Z,84.89
2018-12-12T12:26:51.122Z,84.02
2018-12-12T12:29:54.742Z,83.76
2018-12-12T12:32:58.238Z,84.43
2018-12-12T12:36:02.050Z,84.76
2018-12-12T12:39:08.357Z,85.30
2018-12-12T12:42:12.996Z,85.65
2018-12-12T12:45:16.617Z,85.62
2018-12-12T12:48:20.461Z,85.94
2018-12-12T12:51:24.047Z,86.09
2018-12-12T12:54:27.624Z,85.82
2018-12-12T12:57:31.270Z,86.21
2018-12-12T13:00:34.882Z,86.18
2018-12-12T13:03:38.753Z,87.24
2018-12-12T13:06:42.379Z,86.34
2018-12-12T13:09:45.967Z,87.25
2018-12-12T13:12:49.498Z,87.45
2018-12-12T13:15:53.128Z,86.32
2018-12-12T13:18:56.735Z,87.46
2018-12-12T13:22:00.415Z,87.28
2018-12-12T13:25:04.026Z,87.61
2018-12-12T13:28:07.491Z,87.58
2018-12-12T13:31:11.069Z,86.66
2018-12-12T13:34:16.415Z,86.31
2018-12-12T13:37:18.290Z,89.63
2018-12-12T13:40:21.831Z,87.86
2018-12-12T13:43:25.401Z,89.13
2018-12-12T13:46:28.937Z,90.45
2018-12-12T13:49:33.432Z,90.71
2018-12-12T13:52:36.906Z,90.43
2018-12-12T13:55:41.513Z,90.28
2018-12-12T13:58:44.962Z,86.41
2018-12-12T14:01:48.388Z,87.10
2018-12-12T14:04:52.127Z,88.62
2018-12-12T14:07:55.647Z,89.43
2018-12-12T14:10:59.461Z,90.39
2018-12-12T14:14:02.953Z,89.54
2018-12-12T14:17:06.662Z,89.71
2018-12-12T14:20:10.328Z,89.64
2018-12-12T14:23:14.882Z,89.99
2018-12-12T14:26:18.508Z,89.98
2018-12-12T14:29:21.967Z,90.51
2018-12-12T14:32:25.821Z,90.42
2018-12-12T14:35:29.401Z,91.16
2018-12-12T14:38:33.904Z,92.13
2018-12-12T14:41:37.329Z,92.69
2018-12-12T14:44:41.022Z,92.39
2018-12-12T14:47:44.545Z,92.83
2018-12-12T14:50:48.029Z,93.52
2018-12-12T14:53:51.724Z,94.23
2018-12-12T14:56:55.326Z,94.75
2018-12-12T14:59:58.981Z,93.76
2018-12-12T15:03:02.835Z,93.95
2018-12-12T15:06:06.598Z,94.50
2018-12-12T15:09:10.322Z,94.89
2018-12-12T15:12:13.937Z,94.95
2018-12-12T15:15:17.577Z,95.31
2018-12-12T15:18:21.524Z,95.52
2018-12-12T15:21:25.852Z,96.09
2018-12-12T15:24:28.943Z,95.86
2018-12-12T15:27:32.647Z,95.91
2018-12-12T15:30:41.082Z,97.54
2018-12-12T15:33:43.619Z,97.75
2018-12-12T15:36:47.126Z,98.60
2018-12-12T15:39:50.768Z,99.37
2018-12-12T15:42:54.435Z,99.38
2018-12-12T15:45:58.077Z,98.86
2018-12-12T15:49:01.675Z,98.34
2018-12-12T15:52:06.309Z,98.59
2018-12-12T15:55:09.944Z,99.12
2018-12-12T15:58:13.536Z,98.94
2018-12-12T16:01:17.326Z,98.52
2018-12-12T16:04:20.989Z,99.00
2018-12-12T16:07:24.700Z,99.14
2018-12-12T16:10:28.269Z,98.45
2018-12-12T16:13:31.815Z,98.58
2018-12-12T16:16:35.445Z,98.46
2018-12-12T16:19:39.113Z,96.99
2018-12-12T16:22:42.754Z,97.57
2018-12-12T16:25:46.368Z,97.63
2018-12-12T16:28:49.975Z,97.90
2018-12-12T16:31:54.616Z,97.90
2018-12-12T16:34:58.327Z,97.75
2018-12-12T16:38:05.616Z,97.69
2018-12-12T16:41:10.248Z,97.37
2018-12-12T16:44:16.313Z,97.28
2018-12-12T16:47:20.165Z,98.01
2018-12-12T16:50:24.725Z,97.30
2018-12-12T16:53:28.425Z,98.29
2018-12-12T16:56:31.867Z,98.25
2018-12-12T16:59:35.372Z,97.54
2018-12-12T17:02:38.840Z,96.68
2018-12-12T17:05:42.444Z,96.96
2018-12-12T17:08:47.755Z,96.11
2018-12-12T17:11:51.300Z,95.28
2018-12-12T17:14:54.895Z,93.12
2018-12-12T17:17:59.584Z,92.87
2018-12-12T17:21:03.327Z,92.06
2018-12-12T17:24:07.037Z,92.11
2018-12-12T17:27:11.274Z,92.06
2018-12-12T17:30:15.002Z,91.02
2018-12-12T17:33:19.004Z,91.28
2018-12-12T17:36:22.542Z,90.53
2018-12-12T17:39:26.211Z,90.57
2018-12-12T17:42:29.779Z,90.50
2018-12-12T17:45:33.602Z,90.85
2018-12-12T17:48:37.014Z,92.02
2018-12-12T17:51:41.753Z,91.74
2018-12-12T17:54:45.261Z,91.63
2018-12-12T17:57:49.230Z,90.30
2018-12-12T18:00:54.186Z,87.83
2018-12-12T18:03:57.879Z,88.91
2018-12-12T18:07:01.311Z,88.45
2018-12-12T18:10:05.311Z,88.44
2018-12-12T18:13:09.904Z,88.39
2018-12-12T18:16:13.746Z,88.47
2018-12-12T18:19:17.409Z,88.15
2018-12-12T18:22:21.771Z,87.23
2018-12-12T18:25:25.319Z,87.50
2018-12-12T18:28:28.875Z,86.82
2018-12-12T18:31:32.593Z,86.43
2018-12-12T18:34:36.407Z,86.61
2018-12-12T18:37:40.001Z,86.59
2018-12-12T18:40:46.044Z,86.09
2018-12-12T18:43:49.464Z,86.70
2018-12-12T18:46:53.973Z,86.28
2018-12-12T18:49:57.536Z,85.92
2018-12-12T18:53:01.271Z,86.45
2018-12-12T18:56:05.760Z,86.31
2018-12-12T18:59:09.346Z,87.28
2018-12-12T19:02:12.901Z,86.70
2018-12-12T19:05:16.609Z,86.80
2018-12-12T19:08:20.340Z,86.59
2018-12-12T19:11:23.960Z,85.07
2018-12-12T19:14:27.792Z,86.34
2018-12-12T19:17:31.363Z,85.07
2018-12-12T19:20:35.100Z,85.17
2018-12-12T19:23:38.983Z,84.62
2018-12-12T19:26:43.118Z,84.55
2018-12-12T19:29:48.451Z,84.23
2018-12-12T19:32:53.034Z,84.84
2018-12-12T19:35:56.813Z,83.52
2018-12-12T19:39:00.284Z,83.79
2018-12-12T19:42:03.733Z,83.93
2018-12-12T19:45:08.051Z,84.28
2018-12-12T19:48:11.723Z,82.42
2018-12-12T19:51:15.432Z,83.62
2018-12-12T19:54:18.826Z,83.23
2018-12-12T19:57:22.359Z,83.35
2018-12-12T20:00:26.155Z,82.09
2018-12-12T20:03:36.145Z,82.87
2018-12-12T20:06:39.701Z,81.48
2018-12-12T20:09:43.241Z,82.82
2018-12-12T20:12:46.717Z,83.12
2018-12-12T20:15:50.248Z,82.44
2018-12-12T20:18:54.240Z,81.82
2018-12-12T20:21:57.704Z,83.03
2018-12-12T20:25:01.464Z,84.01
2018-12-12T20:28:04.935Z,83.94
2018-12-12T20:31:10.007Z,84.03
2018-12-12T20:34:13.405Z,85.05
2018-12-12T20:37:16.873Z,83.95
2018-12-12T20:40:22.306Z,84.61
2018-12-12T20:43:30.050Z,84.12
2018-12-12T20:46:33.948Z,84.00
2018-12-12T20:49:38.107Z,85.10
2018-12-12T20:52:41.789Z,86.80
2018-12-12T20:55:45.371Z,86.57
2018-12-12T20:58:49.036Z,86.36
2018-12-12T21:01:52.834Z,84.79
2018-12-12T21:04:58.523Z,85.72
2018-12-12T21:08:06.123Z,86.27
2018-12-12T21:11:10.474Z,84.92
2018-12-12T21:14:14.041Z,85.62
2018-12-12T21:17:17.755Z,85.43
2018-12-12T21:20:30.463Z,84.64
2018-12-12T21:23:34.729Z,84.71
2018-12-12T21:26:38.941Z,83.69
2018-12-12T21:29:43.534Z,82.58
2018-12-12T21:32:47.162Z,82.77
2018-12-12T21:35:50.568Z,81.27
2018-12-12T21:38:55.032Z,80.99
2018-12-12T21:41:58.427Z,81.00
2018-12-12T21:45:02.007Z,80.26
2018-12-12T21:48:05.720Z,80.81
2018-12-12T21:51:11.179Z,80.06
2018-12-12T21:54:14.658Z,80.62
2018-12-12T21:57:20.085Z,80.38
2018-12-12T22:00:24.590Z,79.27
2018-12-12T22:03:28.378Z,79.82
2018-12-12T22:06:32.378Z,79.23
2018-12-12T22:09:36.066Z,78.94
2018-12-12T22:12:39.781Z,79.14
2018-12-12T22:15:43.478Z,77.88
2018-12-12T22:18:47.074Z,77.76
2018-12-12T22:21:50.646Z,77.48
2018-12-12T22:24:54.256Z,75.90
2018-12-12T22:27:57.897Z,75.79
2018-12-12T22:31:05.268Z,74.93
2018-12-12T22:34:10.844Z,74.58
2018-12-12T22:37:14.372Z,75.12
2018-12-12T22:40:18.068Z,74.69
2018-12-12T22:43:21.619Z,73.84
2018-12-12T22:46:30.747Z,72.92
2018-12-12T22:49:34.715Z,71.61
2018-12-12T22:52:39.390Z,71.43
2018-12-12T22:55:42.241Z,71.25
2018-12-12T22:58:45.946Z,71.91
2018-12-12T23:01:50.461Z,71.35
2018-12-12T23:04:55.091Z,71.47
2018-12-12T23:07:58.704Z,72.54
2018-12-12T23:11:04.410Z,71.95
2018-12-12T23:14:08.118Z,72.53
2018-12-12T23:17:12.672Z,72.80
2018-12-12T23:20:16.492Z,73.09
2018-12-12T23:23:24.335Z,73.57
2018-12-12T23:26:28.135Z,73.32
2018-12-12T23:29:33.742Z,73.32
2018-12-12T23:32:37.330Z,73.29
2018-12-12T23:35:44.286Z,72.46
2018-12-12T23:38:49.114Z,73.62
2018-12-12T23:41:53.722Z,73.18
2018-12-12T23:45:00.988Z,73.48
2018-12-12T23:48:07.912Z,73.50
2018-12-12T23:51:13.525Z,74.62
2018-12-12T23:54:17.195Z,75.00
2018-12-12T23:57:20.731Z,75.05
